Terminal Aerodrome Forecast
Issued by NWS Missoula, MT

Home | Current Version | Previous Version | Text Only | Print | Product List | Glossary On
Versions: 1 2 3 4 5 6 7 8 9 10 11 12 13 14 15 16 17 18 19
000
FTUS45 KMSO 230539
TAFBTM
TAF
KBTM 230539Z 2306/2406 16008KT P6SM OVC090
     FM231400 VRB04KT P6SM VCSH SCT050 OVC060
     FM231900 32010G20KT P6SM VCSH SCT040=

USA.gov is the U.S. government's official web portal to all federal, state and local government web resources and services.